Saint-Andre, Canada
Current Conditions -  °F | °C
As of 4:53 AM on Sunday 26 Oct 2014 (Local Time) from KFVE Reporting Station
Light Rain Light Rain  
Wind Chill: 31°   Ceiling: 300
Heat Index: 38°   Visibility: 4mi
Dew Point: 37°   Wind: 9mph
Humidity: 97%   Direction: 100°E
Pressure: 29.36"   Gusts: NA
Location:  47.67°N, 69.73°W
Report Text: KFVE 260853Z AUTO 10008KT 4SM -RA BR OVC003 03/03 A2936 RMK AO2 SLP946 P0001 60003 T00330028 56012
Loading
Personal Weather Stations






























Interactive Weather Map
Tropical Storm Tracking
New forecast layout! Learn more

10-Day Weather Forecast

Advertisements
Track Severe Weather on mobile